To NAV CANADA Home Page Login to a new session Search on AWWS site Feedback and Comments Disclaimer Vers la page française équivalente Tips FAQ What's new on the site To the Forecasts and Observations / NOTAM section To "File a Flight Plan" website Publications and other links Update of the User's profile FIC Telephone Numbers My Weather Data Folder Route Weather Data Regional Weather Data Local Weather Data To the Forecasts and Observations / NOTAM section
Request Generated 04/30/2017 at 05:09:37 UTC . Weather information available at that time is displayed.


Go to a specific product

Save this request - Inactive

METAR/TAF

OTTAWA/GATINEAU/QC    

LWIS CYND 300500Z AUTO 31005KT 03/M04 A3033=
LWIS CYND 300400Z AUTO 34006KT 04/M05 A3028=
LWIS CYND 300300Z AUTO 35004KT 300V030 04/M05 A3027=

*** REMARK        : Forecast period has ended; this was the last TAF issued
*** REMARQUE : La période de prévision est échue; ceci était le dernier TAF qui a été émis
TAF AMD CYND 292117Z 2921/3001 35012G22KT P6SM FEW050
RMK NXT FCST WILL BE ISSUED AT 301245Z=

OTTAWA/MACDONALD-CARTIER INTL/ON    

METAR CYOW 300500Z 35011KT 15SM SKC 04/M05 A3033 RMK SLP274=
METAR CYOW 300400Z 35009KT 15SM SKC 05/M05 A3029 RMK PRESRR SLP262=
METAR CYOW 300300Z 35010KT 15SM SKC 05/M05 A3027 RMK SLP254=

TAF CYOW 300251Z 3003/3024 33009G19KT P6SM SKC
FM300600 34008KT P6SM SCT040 SCT150 TEMPO 3006/3012 BKN040
BECMG 3008/3010 02007KT
FM301200 04010KT P6SM FEW030 BKN120
FM301600 08008KT P6SM -SHRA OVC080
FM302100 07012KT 5SM -RA BR BKN020 OVC050
FM302300 07012KT 3SM -RA BR FEW008 OVC020
RMK NXT FCST BY 300600Z=


GRAPHICAL FA CLOUDS & WEATHER FORECASTS
To the Product Selector
Graphical FA gfacn33      

GRAPHICAL FA ICING, TURBULENCE & FREEZING LEVEL FORECASTS
To the Product Selector
Graphical FA gfacn33      

FDTEXT Low Level FD. Temperatures are not forecast for the 3,000-foot level.
To the Product Selector
STN YOW - OTTAWA. ONT for use 3000 6000 9000 12000 18000
FDCN01 CWAO FCST BASED ON 300000 DATA VALID 300600 05-09 0219 3113+01 3121+01 2949-01 2760-10
FDCN02 CWAO FCST BASED ON 300000 DATA VALID 301200 09-18 1016 3508+05 2919+03 2847-01 2769-10
FDCN03 CWAO FCST BASED ON 300000 DATA VALID 010000 18-05 1316 2119+05 2531+05 2541+00 2561-10



Your time UTC time
Weather data provided by Environment Canada and NAV CANADA